createdAt,value
2022-08-17T00:00:43.645Z,9.18301
2022-08-17T00:05:51.727Z,9.60335
2022-08-17T00:10:53.395Z,9.19138
2022-08-17T00:15:54.997Z,9.29507
2022-08-17T00:20:56.591Z,10.23533
2022-08-17T00:25:58.160Z,10.48709
2022-08-17T00:30:59.771Z,9.44656
2022-08-17T00:36:01.403Z,11.43071
2022-08-17T00:41:03.011Z,12.3631
2022-08-17T00:46:04.758Z,12.66171
2022-08-17T00:51:06.340Z,12.41047
2022-08-17T00:56:07.981Z,14.88411
2022-08-17T01:01:09.623Z,13.33811
2022-08-17T01:06:11.257Z,14.26157
2022-08-17T01:11:13.255Z,14.59137
2022-08-17T01:16:14.839Z,14.9151
2022-08-17T01:21:16.419Z,14.65378
2022-08-17T01:26:18.013Z,14.96988
2022-08-17T01:31:19.615Z,15.14767
2022-08-17T01:36:21.249Z,16.87704
2022-08-17T01:41:22.858Z,16.64599
2022-08-17T01:46:24.493Z,17.39735
2022-08-17T01:51:26.126Z,17.525
2022-08-17T01:56:27.870Z,17.21069
2022-08-17T02:01:29.521Z,17.60503
2022-08-17T02:06:31.256Z,17.93021
2022-08-17T02:11:33.478Z,18.73121
2022-08-17T02:16:36.773Z,19.04946
2022-08-17T02:21:38.885Z,20.77463
2022-08-17T02:26:40.483Z,20.19633
2022-08-17T02:31:42.108Z,21.27533
2022-08-17T02:36:43.772Z,20.71401
2022-08-17T02:41:45.402Z,21.02783
2022-08-17T02:46:47.005Z,21.1541
2022-08-17T02:51:48.627Z,21.98668
2022-08-17T02:56:50.237Z,21.46193
2022-08-17T03:01:51.868Z,21.33564
2022-08-17T03:06:53.490Z,21.86556
2022-08-17T03:11:55.889Z,22.24519
2022-08-17T03:16:57.723Z,22.56502
2022-08-17T03:21:59.309Z,22.65892
2022-08-17T03:27:00.947Z,23.39594
2022-08-17T03:32:02.627Z,23.31285
2022-08-17T03:37:04.205Z,23.52732
2022-08-17T03:42:06.009Z,24.90691
2022-08-17T03:47:07.707Z,25.43524
2022-08-17T03:52:09.297Z,27.92341
2022-08-17T03:57:10.914Z,26.28236
2022-08-17T04:02:12.489Z,26.51994
2022-08-17T04:07:14.109Z,25.65501
2022-08-17T04:12:15.701Z,26.03623
2022-08-17T04:17:17.320Z,26.87513
2022-08-17T04:22:33.005Z,26.61439
2022-08-17T04:27:35.864Z,31.88056
2022-08-17T04:32:59.287Z,28.99046
2022-08-17T04:38:11.726Z,28.90449
2022-08-17T04:43:13.799Z,32.83494
2022-08-17T04:48:15.660Z,34.15103
2022-08-17T04:53:17.295Z,31.28623
2022-08-17T04:58:18.959Z,33.50644
2022-08-17T05:03:21.113Z,29.5129
2022-08-17T05:08:23.025Z,31.13204
2022-08-17T05:13:24.660Z,30.63593
2022-08-17T05:18:27.331Z,40.0607
2022-08-17T05:23:36.542Z,33.5581
2022-08-17T05:28:44.161Z,32.56289
2022-08-17T05:33:47.660Z,32.46422
2022-08-17T05:38:49.571Z,31.52871
2022-08-17T05:43:56.099Z,35.04089
2022-08-17T05:48:58.602Z,32.73366
2022-08-17T05:54:00.215Z,31.74107
2022-08-17T05:59:01.864Z,31.54616
2022-08-17T06:04:03.490Z,42.97545
2022-08-17T06:09:05.077Z,39.18433
2022-08-17T06:14:06.642Z,37.41484
2022-08-17T06:19:08.433Z,40.32719
2022-08-17T06:24:10.030Z,37.74191
2022-08-17T06:29:18.595Z,35.93882
2022-08-17T06:34:20.677Z,37.05464
2022-08-17T06:39:22.266Z,38.24048
2022-08-17T06:44:43.651Z,38.91963
2022-08-17T06:49:55.396Z,40.22917
2022-08-17T06:54:57.497Z,37.65341
2022-08-17T06:59:59.105Z,36.91702
2022-08-17T07:05:00.844Z,37.84268
2022-08-17T07:10:02.475Z,36.39042
2022-08-17T07:15:04.129Z,35.64474
2022-08-17T07:20:05.818Z,42.63346
2022-08-17T07:25:07.433Z,39.85258
2022-08-17T07:30:10.880Z,40.61717
2022-08-17T07:35:13.015Z,41.7782
2022-08-17T07:40:17.439Z,39.55889
2022-08-17T07:45:19.137Z,38.76544
2022-08-17T07:50:25.742Z,37.41508
2022-08-17T07:55:27.746Z,39.84848
2022-08-17T08:00:32.363Z,38.19356
2022-08-17T08:05:50.390Z,37.74095
2022-08-17T08:10:52.773Z,42.95599
2022-08-17T08:15:54.848Z,44.7364
2022-08-17T08:20:56.524Z,40.15479
2022-08-17T08:25:58.133Z,39.29385
2022-08-17T08:30:59.773Z,39.20752
2022-08-17T08:36:01.378Z,40.11453
2022-08-17T08:41:03.037Z,59.98819
2022-08-17T08:46:04.954Z,48.05066
2022-08-17T08:51:06.586Z,48.23555
2022-08-17T08:56:10.220Z,45.48524
2022-08-17T09:01:17.296Z,49.38762
2022-08-17T09:06:33.257Z,46.44457
2022-08-17T09:12:01.287Z,55.25542
2022-08-17T09:17:05.095Z,50.5603
2022-08-17T09:22:06.748Z,47.82515
2022-08-17T09:27:08.370Z,47.91764
2022-08-17T09:32:10.004Z,44.72368
2022-08-17T09:37:11.650Z,52.3696
2022-08-17T09:42:13.391Z,43.01166
2022-08-17T09:47:14.977Z,56.37232
2022-08-17T09:52:16.579Z,55.51165
2022-08-17T09:57:29.687Z,53.02006
2022-08-17T10:02:31.823Z,49.86386
2022-08-17T10:07:33.454Z,45.7678
2022-08-17T10:12:35.151Z,52.73608
2022-08-17T10:17:36.929Z,45.41379
2022-08-17T10:22:38.651Z,44.86138
2022-08-17T10:27:41.598Z,43.81898
2022-08-17T10:32:43.249Z,45.14095
2022-08-17T10:37:44.901Z,50.46421
2022-08-17T10:42:46.659Z,45.43089
2022-08-17T10:47:55.543Z,46.22242
2022-08-17T10:52:57.990Z,46.1224
2022-08-17T10:57:59.609Z,50.35764
2022-08-17T11:03:01.222Z,46.14649
2022-08-17T11:08:02.783Z,57.53752
2022-08-17T11:13:06.276Z,51.25828
2022-08-17T11:18:07.906Z,52.07783
2022-08-17T11:23:09.700Z,49.45718
2022-08-17T11:28:11.308Z,48.01714
2022-08-17T11:33:12.903Z,47.9891
2022-08-17T11:38:16.086Z,45.49098
2022-08-17T11:43:18.097Z,49.20618
2022-08-17T11:48:27.711Z,46.30383
2022-08-17T11:53:30.425Z,52.29818
2022-08-17T11:58:32.023Z,45.61527
2022-08-17T12:03:33.755Z,45.56315
2022-08-17T12:08:35.573Z,52.59641
2022-08-17T12:13:39.905Z,50.86799
2022-08-17T12:18:41.855Z,47.65805
2022-08-17T12:23:44.157Z,46.6331
2022-08-17T12:28:45.995Z,46.55553
2022-08-17T12:33:47.586Z,46.22266
2022-08-17T12:38:49.234Z,45.29285
2022-08-17T12:43:50.948Z,46.6704
2022-08-17T12:48:54.952Z,46.14523
2022-08-17T12:54:01.636Z,45.51396
2022-08-17T12:59:03.232Z,49.42692
2022-08-17T13:04:04.849Z,49.80017
2022-08-17T13:09:06.479Z,55.58309
2022-08-17T13:14:08.132Z,50.02786
2022-08-17T13:19:09.732Z,48.36961
2022-08-17T13:24:11.402Z,47.66894
2022-08-17T13:29:13.030Z,48.10284
2022-08-17T13:34:14.657Z,58.78682
2022-08-17T13:39:17.054Z,49.08263
2022-08-17T13:44:18.655Z,49.98616
2022-08-17T13:49:20.254Z,49.49637
2022-08-17T13:54:21.863Z,53.27366
2022-08-17T13:59:52.663Z,52.99617
2022-08-17T14:04:55.855Z,50.48167
2022-08-17T14:09:57.651Z,52.85069
2022-08-17T14:15:00.925Z,52.97784
2022-08-17T14:20:02.607Z,51.54948
2022-08-17T14:25:04.195Z,49.63085
2022-08-17T14:30:10.121Z,50.18543
2022-08-17T14:35:11.948Z,48.17132
2022-08-17T14:40:13.613Z,50.50664
2022-08-17T14:45:30.470Z,47.44749
2022-08-17T14:50:35.725Z,45.96421
2022-08-17T14:55:37.568Z,44.85491
2022-08-17T15:00:39.174Z,43.74519
2022-08-17T15:05:40.986Z,44.31836
2022-08-17T15:10:42.645Z,42.61329
2022-08-17T15:15:44.261Z,40.86591
2022-08-17T15:20:45.833Z,39.19095
2022-08-17T15:25:47.668Z,39.05668
2022-08-17T15:30:49.257Z,35.49418
2022-08-17T15:35:50.857Z,34.59585
2022-08-17T15:40:52.695Z,35.18977
2022-08-17T15:46:00.143Z,35.70775
2022-08-17T15:51:02.366Z,34.28301
2022-08-17T15:56:03.988Z,34.65026
2022-08-17T16:01:18.275Z,33.69088
2022-08-17T16:06:22.692Z,32.4338
2022-08-17T16:11:24.284Z,32.01702
2022-08-17T16:16:25.890Z,30.30118
2022-08-17T16:21:27.545Z,29.26269
2022-08-17T16:26:29.129Z,30.59983
2022-08-17T16:31:30.725Z,28.60584
2022-08-17T16:36:32.315Z,27.68582
2022-08-17T16:41:34.010Z,27.50356
2022-08-17T16:46:35.612Z,26.45448
2022-08-17T16:51:37.184Z,26.07697
2022-08-17T16:56:38.794Z,27.44753
2022-08-17T17:01:40.474Z,26.0859
2022-08-17T17:06:42.082Z,25.69351
2022-08-17T17:11:43.695Z,28.15397
2022-08-17T17:16:45.282Z,25.72456
2022-08-17T17:21:46.871Z,24.60403
2022-08-17T17:26:48.548Z,24.35474
2022-08-17T17:31:50.151Z,24.11019
2022-08-17T17:36:51.962Z,24.48236
2022-08-17T17:41:53.567Z,24.20666
2022-08-17T17:46:55.133Z,24.5559
2022-08-17T17:52:11.004Z,24.49255
2022-08-17T17:57:15.028Z,23.42226
2022-08-17T18:02:16.678Z,24.16822
2022-08-17T18:07:18.381Z,22.94701
2022-08-17T18:12:19.977Z,21.7448
2022-08-17T18:17:21.705Z,21.9376
2022-08-17T18:22:23.500Z,22.44797
2022-08-17T18:27:25.371Z,21.09453
2022-08-17T18:32:26.969Z,22.77465
2022-08-17T18:37:28.564Z,22.1713
2022-08-17T18:42:30.340Z,21.12704
2022-08-17T18:47:32.112Z,20.53071
2022-08-17T18:52:34.202Z,20.90701
2022-08-17T18:57:35.789Z,21.46395
2022-08-17T19:02:45.607Z,19.98124
2022-08-17T19:07:47.935Z,19.36667
2022-08-17T19:12:49.526Z,20.17597
2022-08-17T19:17:51.656Z,19.71299
2022-08-17T19:22:53.396Z,20.38651
2022-08-17T19:27:57.346Z,22.82802
2022-08-17T19:32:59.770Z,20.82203
2022-08-17T19:38:01.417Z,18.9982
2022-08-17T19:43:03.014Z,19.6873
2022-08-17T19:48:04.889Z,22.04459
2022-08-17T19:53:06.769Z,19.34145
2022-08-17T19:58:08.415Z,20.32163
2022-08-17T20:03:16.157Z,17.70643
2022-08-17T20:08:18.363Z,15.78139
2022-08-17T20:13:19.977Z,17.3293
2022-08-17T20:18:35.542Z,15.79916
2022-08-17T20:23:37.154Z,18.55181
2022-08-17T20:28:38.757Z,15.93516
2022-08-17T20:33:40.357Z,14.94275
2022-08-17T20:38:41.951Z,14.88398
2022-08-17T20:43:43.551Z,14.15711
2022-08-17T20:48:45.544Z,12.24567
2022-08-17T20:53:47.549Z,13.33525
2022-08-17T20:58:49.193Z,12.24552
2022-08-17T21:03:51.907Z,13.12493
2022-08-17T21:08:53.989Z,13.44702
2022-08-17T21:13:55.622Z,11.61687
2022-08-17T21:18:57.218Z,12.71294
2022-08-17T21:23:58.847Z,11.59093
2022-08-17T21:29:17.835Z,11.69877
2022-08-17T21:34:33.491Z,13.40068
2022-08-17T21:39:35.344Z,13.50031
2022-08-17T21:44:37.002Z,13.82703
2022-08-17T21:49:38.619Z,13.88993
2022-08-17T21:54:40.634Z,13.82403
2022-08-17T21:59:42.486Z,12.61386
2022-08-17T22:04:44.040Z,12.60008
2022-08-17T22:09:45.620Z,12.37514
2022-08-17T22:14:52.628Z,11.12717
2022-08-17T22:19:55.458Z,11.28439
2022-08-17T22:24:57.611Z,8.89107
2022-08-17T22:29:59.380Z,9.56723
2022-08-17T22:35:00.982Z,8.79194
2022-08-17T22:40:02.637Z,9.15021
2022-08-17T22:45:04.316Z,8.53913
2022-08-17T22:50:05.935Z,8.91243
2022-08-17T22:55:09.217Z,8.13341
2022-08-17T23:00:11.247Z,8.48349
2022-08-17T23:05:14.292Z,7.35657
2022-08-17T23:10:15.934Z,8.63343
2022-08-17T23:15:17.695Z,9.36173
2022-08-17T23:20:19.350Z,8.55672
2022-08-17T23:25:20.965Z,8.70557
2022-08-17T23:30:22.560Z,9.76951
2022-08-17T23:35:39.737Z,10.65024
2022-08-17T23:40:42.705Z,10.71666
2022-08-17T23:45:44.291Z,11.95457
2022-08-17T23:50:45.939Z,13.26159
2022-08-17T23:55:48.224Z,14.35794
